Terminal Aerodrome Forecast
Issued by NWS

Home | Current Version | Previous Version | Text Only | Print | Product List | Glossary On
Versions: 1 2 3 4 5 6 7 8 9 10 11 12 13 14 15 16
000
FTUS43 KICT 231700 RRA
TAFHUT
TAF
KHUT 231741Z 2318/2418 02008KT P6SM SCT250
     FM240000 11005KT P6SM BKN250
     FM240900 13006KT 5SM BR SKC
     FM241500 16015G21KT P6SM SKC=

USA.gov is the U.S. government's official web portal to all federal, state and local government web resources and services.